Time;durP1;ratioP1;P1;durP2;ratioP2;P2;SDS_P1;SDS_P2;PMS_P1;PMS_P2;Temp;Humidity;BMP_temperature;BMP_pressure;BME280_temperature;BME280_humidity;BME280_pressure;Samples;Min_cycle;Max_cycle;Signal;HPM_P1;HPM_P2
2022/09/05 00:02:02;;;;;;;12.52;6.97;;;19.90;64.80;;;;;;5072927;28;20063;-71
2022/09/05 00:04:27;;;;;;;8.45;6.68;;;19.90;64.60;;;;;;5072799;28;20032;-71
2022/09/05 00:07:03;;;;;;;12.40;7.07;;;19.80;64.80;;;;;;5072765;28;20025;-71
2022/09/05 00:09:50;;;;;;;11.45;7.10;;;19.80;65.10;;;;;;5072781;28;20055;-71
2022/09/05 00:12:17;;;;;;;12.55;7.40;;;19.80;65.30;;;;;;5072748;28;20036;-69
2022/09/05 00:14:55;;;;;;;10.38;7.05;;;19.80;65.10;;;;;;5072718;28;20029;-70
2022/09/05 00:17:51;;;;;;;9.40;6.93;;;19.70;65.00;;;;;;5072857;28;20028;-70
2022/09/05 00:20:33;;;;;;;10.05;6.55;;;19.70;64.80;;;;;;5074814;28;20029;-70
2022/09/05 00:23:08;;;;;;;9.73;6.70;;;19.80;65.00;;;;;;5076356;28;20085;-70
2022/09/05 00:25:57;;;;;;;11.15;6.60;;;19.90;64.60;;;;;;5076371;28;20021;-71
2022/09/05 00:28:25;;;;;;;10.50;6.57;;;20.00;64.20;;;;;;5076250;28;20071;-70
2022/09/05 00:31:19;;;;;;;9.68;6.70;;;19.90;64.30;;;;;;5076255;28;20025;-70
2022/09/05 00:34:02;;;;;;;10.38;6.30;;;19.80;64.90;;;;;;5076232;28;20083;-71
2022/09/05 00:36:54;;;;;;;12.90;7.32;;;19.80;65.00;;;;;;5076328;28;20108;-71
2022/09/05 00:39:32;;;;;;;16.73;7.63;;;19.70;65.20;;;;;;5076139;28;20033;-72
2022/09/05 00:42:03;;;;;;;9.95;6.53;;;19.60;65.00;;;;;;5076027;28;20064;-71
2022/09/05 00:44:33;;;;;;;10.07;6.95;;;19.60;65.10;;;;;;5076066;28;20041;-71
2022/09/05 00:47:25;;;;;;;12.13;6.57;;;19.60;65.00;;;;;;5076141;28;20031;-71
2022/09/05 00:50:07;;;;;;;10.13;6.27;;;19.50;65.10;;;;;;5075983;28;20081;-71
2022/09/05 00:53:15;;;;;;;10.20;6.85;;;19.50;64.80;;;;;;5075891;28;20623;-72
2022/09/05 00:56:17;;;;;;;10.30;6.82;;;19.40;65.10;;;;;;5053962;28;20044;-71
2022/09/05 00:59:08;;;;;;;10.23;6.17;;;19.30;66.00;;;;;;5075794;28;20063;-71
2022/09/05 01:01:52;;;;;;;14.02;7.30;;;19.20;65.80;;;;;;5075699;28;20064;-71
2022/09/05 01:04:32;;;;;;;11.00;6.28;;;19.30;65.70;;;;;;5075667;28;20036;-71
2022/09/05 01:07:14;;;;;;;11.43;6.97;;;19.40;65.10;;;;;;5075732;28;20021;-71
2022/09/05 01:10:23;;;;;;;10.55;6.10;;;19.40;65.00;;;;;;5075594;28;20032;-71
2022/09/05 01:13:27;;;;;;;7.80;6.28;;;19.40;64.90;;;;;;5075044;28;20036;-71
2022/09/05 01:15:52;;;;;;;8.63;6.53;;;19.40;65.10;;;;;;5075430;28;20036;-70
2022/09/05 01:18:54;;;;;;;15.32;6.57;;;19.30;65.50;;;;;;5075361;28;20052;-70
2022/09/05 01:21:39;;;;;;;8.52;6.28;;;19.20;66.10;;;;;;5075494;28;20025;-70
2022/09/05 01:24:22;;;;;;;11.02;6.45;;;19.30;66.20;;;;;;5075410;28;20084;-71
2022/09/05 01:27:26;;;;;;;9.10;5.93;;;19.20;66.20;;;;;;5075223;28;20059;-71
2022/09/05 01:30:02;;;;;;;11.68;6.43;;;19.20;66.20;;;;;;5075120;28;20028;-71
2022/09/05 01:32:49;;;;;;;11.63;6.43;;;19.20;66.10;;;;;;5074376;28;20025;-71
2022/09/05 01:36:01;;;;;;;14.60;7.03;;;19.30;65.90;;;;;;5075072;28;20028;-71
2022/09/05 01:38:45;;;;;;;11.20;6.38;;;19.30;65.80;;;;;;5064109;28;20041;-71
2022/09/05 01:41:53;;;;;;;11.13;6.20;;;19.30;65.80;;;;;;5074995;28;20032;-71
2022/09/05 01:44:36;;;;;;;11.93;6.45;;;19.20;65.30;;;;;;5064529;28;20063;-71
2022/09/05 01:47:39;;;;;;;8.55;6.53;;;19.20;65.50;;;;;;5074999;28;20044;-71
2022/09/05 01:50:16;;;;;;;11.02;6.97;;;19.20;65.50;;;;;;5074938;28;20024;-71
2022/09/05 01:53:08;;;;;;;10.40;6.88;;;19.10;65.90;;;;;;5074755;28;20017;-71
2022/09/05 01:56:21;;;;;;;10.55;6.90;;;19.00;65.90;;;;;;5074633;28;20025;-71
2022/09/05 01:59:17;;;;;;;13.43;7.60;;;19.10;65.60;;;;;;5058298;28;20033;-71
2022/09/05 02:01:52;;;;;;;10.57;6.68;;;19.00;66.20;;;;;;5058463;28;20045;-71
2022/09/05 02:04:23;;;;;;;12.05;7.30;;;19.00;66.00;;;;;;5074658;28;20045;-71
2022/09/05 02:07:00;;;;;;;10.27;6.57;;;19.10;65.90;;;;;;5074447;28;20040;-71
2022/09/05 02:09:52;;;;;;;11.30;7.07;;;19.00;65.50;;;;;;5074435;28;20047;-70
2022/09/05 02:12:31;;;;;;;10.13;6.35;;;19.00;66.10;;;;;;5074336;28;20053;-70
2022/09/05 02:15:05;;;;;;;9.90;7.40;;;18.90;65.80;;;;;;5074350;28;20028;-70
2022/09/05 02:17:40;;;;;;;11.15;6.43;;;18.80;66.40;;;;;;5074206;28;20029;-71
2022/09/05 02:20:30;;;;;;;9.75;6.72;;;18.80;66.30;;;;;;5074331;28;20028;-70
2022/09/05 02:23:29;;;;;;;9.52;6.57;;;18.70;66.60;;;;;;5074234;28;20025;-70
2022/09/05 02:26:17;;;;;;;8.25;6.50;;;18.60;66.30;;;;;;5074268;28;20077;-71
2022/09/05 02:29:01;;;;;;;9.07;6.90;;;18.50;66.50;;;;;;5074007;28;20047;-70
2022/09/05 02:31:38;;;;;;;11.77;7.53;;;18.40;66.80;;;;;;5074032;28;20085;-71
2022/09/05 02:34:12;;;;;;;9.73;7.18;;;18.30;67.00;;;;;;5073958;28;20082;-71
2022/09/05 02:37:02;;;;;;;9.20;6.93;;;18.30;67.50;;;;;;5073908;28;20017;-71
2022/09/05 02:39:45;;;;;;;9.60;6.60;;;18.30;66.90;;;;;;5073874;28;20025;-71
2022/09/05 02:42:27;;;;;;;10.40;6.88;;;18.40;67.30;;;;;;5073860;28;20024;-71
2022/09/05 02:45:05;;;;;;;11.98;7.15;;;18.50;67.00;;;;;;5073753;28;20399;-70
2022/09/05 02:48:05;;;;;;;10.98;7.28;;;18.50;67.00;;;;;;5073890;28;20025;-71
2022/09/05 02:50:52;;;;;;;11.48;7.22;;;18.60;66.80;;;;;;5073726;28;20017;-70
2022/09/05 02:53:19;;;;;;;9.93;7.13;;;18.60;66.70;;;;;;5073603;28;20029;-70
2022/09/05 02:56:00;;;;;;;9.65;6.90;;;18.50;66.80;;;;;;5073547;28;20024;-70
2022/09/05 02:58:28;;;;;;;11.82;7.00;;;18.30;66.70;;;;;;5073540;28;20068;-70
2022/09/05 03:01:24;;;;;;;10.23;7.05;;;18.20;67.50;;;;;;5073302;28;20044;-70
2022/09/05 03:03:56;;;;;;;15.32;7.82;;;18.20;67.80;;;;;;5070192;28;20064;-70
2022/09/05 03:06:34;;;;;;;10.38;7.00;;;18.20;68.00;;;;;;5073403;28;20037;-71
2022/09/05 03:09:12;;;;;;;11.25;7.10;;;18.10;67.80;;;;;;5073541;28;20028;-71
2022/09/05 03:11:55;;;;;;;9.60;7.03;;;18.10;68.00;;;;;;5073489;28;20044;-71
2022/09/05 03:14:40;;;;;;;10.95;7.15;;;18.10;68.10;;;;;;5073346;28;20021;-71
2022/09/05 03:17:38;;;;;;;10.07;7.28;;;18.10;68.10;;;;;;5073291;28;20047;-71
2022/09/05 03:20:17;;;;;;;9.63;6.78;;;18.10;68.10;;;;;;5062108;28;20056;-71
2022/09/05 03:23:20;;;;;;;11.10;6.75;;;18.00;68.00;;;;;;5073285;28;20025;-71
2022/09/05 03:26:04;;;;;;;;;;;17.90;68.40;;;;;;5073554;28;20036;-71
2022/09/05 03:28:55;;;;;;;9.40;6.53;;;17.90;68.50;;;;;;5073218;28;19951;-71
2022/09/05 03:32:09;;;;;;;9.48;6.95;;;17.80;68.50;;;;;;5054623;28;20054;-71
2022/09/05 03:34:51;;;;;;;10.02;6.88;;;17.90;68.90;;;;;;5053822;28;20041;-71
2022/09/05 03:37:41;;;;;;;13.27;7.43;;;17.90;69.00;;;;;;5073113;28;20025;-71
2022/09/05 03:40:37;;;;;;;10.82;7.00;;;18.00;69.20;;;;;;5073177;28;20025;-71
2022/09/05 03:43:45;;;;;;;10.45;7.50;;;17.90;69.50;;;;;;5073122;28;20051;-71
2022/09/05 03:46:24;;;;;;;11.05;7.70;;;17.90;68.80;;;;;;5073160;28;20052;-71
2022/09/05 03:49:08;;;;;;;10.93;7.55;;;17.90;68.80;;;;;;5072994;28;20085;-71
2022/09/05 03:51:48;;;;;;;9.70;7.80;;;17.90;68.50;;;;;;5072963;28;20032;-71
2022/09/05 03:54:26;;;;;;;13.10;7.60;;;17.90;68.80;;;;;;5073481;28;20084;-71
2022/09/05 03:57:12;;;;;;;11.05;7.57;;;17.80;69.10;;;;;;5077086;28;20064;-71
2022/09/05 03:59:46;;;;;;;13.80;7.57;;;17.80;69.30;;;;;;5076808;28;20513;-71
2022/09/05 04:02:18;;;;;;;14.25;8.25;;;17.80;69.10;;;;;;5076734;28;20029;-71
2022/09/05 04:04:58;;;;;;;10.85;7.70;;;17.80;69.20;;;;;;5076954;28;20017;-71
2022/09/05 04:07:33;;;;;;;12.07;7.57;;;17.80;69.10;;;;;;5076760;28;20039;-70
2022/09/05 04:10:12;;;;;;;15.27;8.38;;;17.80;68.90;;;;;;5076675;28;20080;-71
2022/09/05 04:12:46;;;;;;;10.98;7.70;;;17.90;68.90;;;;;;5076667;28;20028;-71
2022/09/05 04:15:37;;;;;;;12.80;7.95;;;17.80;68.80;;;;;;5076604;28;20028;-71
2022/09/05 04:18:22;;;;;;;11.13;7.78;;;17.80;69.40;;;;;;5076712;28;20113;-71
2022/09/05 04:21:00;;;;;;;12.10;7.68;;;17.70;68.90;;;;;;5076478;28;20081;-71
2022/09/05 04:23:51;;;;;;;12.60;7.28;;;17.70;68.60;;;;;;5076401;28;20055;-71
2022/09/05 04:26:43;;;;;;;12.38;7.70;;;17.70;68.10;;;;;;5076340;28;20544;-71
2022/09/05 04:29:16;;;;;;;9.27;6.60;;;17.60;68.40;;;;;;5076327;28;20053;-71
2022/09/05 04:32:02;;;;;;;13.30;7.60;;;17.50;68.80;;;;;;5076323;28;20039;-70
2022/09/05 04:34:45;;;;;;;10.88;6.88;;;17.40;68.80;;;;;;5072140;28;20033;-71
2022/09/05 04:37:35;;;;;;;14.18;7.13;;;17.40;69.70;;;;;;5076340;28;20021;-71
2022/09/05 04:40:48;;;;;;;15.73;7.53;;;17.50;69.40;;;;;;5076109;28;20029;-71
2022/09/05 04:43:35;;;;;;;17.95;7.97;;;17.60;69.40;;;;;;5054220;28;20030;-71
2022/09/05 04:46:27;;;;;;;13.27;7.07;;;17.60;69.10;;;;;;5054385;28;20064;-71
2022/09/05 04:49:05;;;;;;;11.95;7.88;;;17.50;68.90;;;;;;5072782;28;20033;-71
2022/09/05 04:51:55;;;;;;;10.25;7.50;;;17.40;69.70;;;;;;5076059;28;20017;-71
2022/09/05 04:54:44;;;;;;;13.02;7.22;;;17.50;69.70;;;;;;5076020;28;20059;-71
2022/09/05 04:57:16;;;;;;;12.25;7.88;;;17.40;69.80;;;;;;5075778;28;20025;-71
2022/09/05 05:00:02;;;;;;;14.13;7.90;;;17.30;69.90;;;;;;5075754;28;20045;-71
2022/09/05 05:02:39;;;;;;;13.70;8.63;;;17.40;70.10;;;;;;5075623;28;20024;-71
2022/09/05 05:05:27;;;;;;;12.65;7.65;;;17.40;70.10;;;;;;5075633;28;20025;-71
2022/09/05 05:08:11;;;;;;;15.38;8.10;;;17.40;69.90;;;;;;5063730;28;20476;-71
2022/09/05 05:10:48;;;;;;;26.67;9.57;;;17.40;70.00;;;;;;5075564;28;20028;-71
2022/09/05 05:13:29;;;;;;;21.52;8.00;;;17.50;69.90;;;;;;5075559;28;20044;-71
2022/09/05 05:16:14;;;;;;;15.07;7.97;;;17.50;69.70;;;;;;5075647;28;20021;-71
2022/09/05 05:18:51;;;;;;;22.85;7.63;;;17.50;70.50;;;;;;5075543;28;20048;-70
2022/09/05 05:21:23;;;;;;;12.70;7.60;;;17.40;69.50;;;;;;5075374;28;20025;-70
2022/09/05 05:23:55;;;;;;;12.37;7.17;;;17.40;69.70;;;;;;5075245;28;20057;-71
2022/09/05 05:26:21;;;;;;;14.82;7.68;;;17.40;69.30;;;;;;5075422;28;20025;-71
2022/09/05 05:29:06;;;;;;;15.50;7.80;;;17.40;69.30;;;;;;5075267;28;20029;-71
2022/09/05 05:31:39;;;;;;;14.75;7.30;;;17.40;69.90;;;;;;5075304;28;20021;-72
2022/09/05 05:34:19;;;;;;;16.23;8.30;;;17.20;69.40;;;;;;5075281;28;20021;-72
2022/09/05 05:37:12;;;;;;;15.63;7.90;;;17.20;69.90;;;;;;5075119;28;20021;-72
2022/09/05 05:39:41;;;;;;;;;;;17.40;70.00;;;;;;5071365;28;20048;-72
2022/09/05 05:42:16;;;;;;;15.32;8.05;;;17.40;69.80;;;;;;5075012;28;19955;-72
2022/09/05 05:44:54;;;;;;;14.10;7.68;;;17.50;70.50;;;;;;5074937;28;20048;-72
2022/09/05 05:47:21;;;;;;;14.27;7.88;;;17.50;70.80;;;;;;5074975;28;20018;-72
2022/09/05 05:50:14;;;;;;;13.00;7.40;;;17.50;70.80;;;;;;5074766;28;20108;-72
2022/09/05 05:52:44;;;;;;;;;;;17.50;71.00;;;;;;5075215;28;20110;-72
2022/09/05 05:55:34;;;;;;;12.45;7.32;;;17.50;71.20;;;;;;5074893;28;19928;-72
2022/09/05 05:58:25;;;;;;;11.80;7.13;;;17.50;72.00;;;;;;5074637;28;20025;-72
2022/09/05 06:01:02;;;;;;;11.32;7.50;;;17.60;72.10;;;;;;5074408;28;20080;-72
2022/09/05 06:03:49;;;;;;;12.07;8.27;;;17.60;72.20;;;;;;5074433;28;20021;-72
2022/09/05 06:06:30;;;;;;;14.43;8.32;;;17.70;72.50;;;;;;5074640;28;20031;-72
2022/09/05 06:09:33;;;;;;;13.93;8.40;;;17.70;72.50;;;;;;5074452;28;20049;-72
2022/09/05 06:12:15;;;;;;;14.70;8.98;;;17.80;72.60;;;;;;5052674;28;20551;-71
2022/09/05 06:14:45;;;;;;;17.05;8.77;;;18.00;72.60;;;;;;5072287;28;20059;-72
2022/09/05 06:17:41;;;;;;;12.48;8.35;;;18.00;72.60;;;;;;5073971;28;20029;-72
2022/09/05 06:20:46;;;;;;;14.30;8.90;;;18.10;72.70;;;;;;5074322;28;20040;-72
2022/09/05 06:23:33;;;;;;;12.77;8.45;;;18.20;72.60;;;;;;5074041;28;20029;-72
2022/09/05 06:26:11;;;;;;;15.70;9.65;;;18.30;73.00;;;;;;5074189;28;20055;-72
2022/09/05 06:29:02;;;;;;;15.02;9.73;;;18.30;73.40;;;;;;5073992;28;20071;-72
2022/09/05 06:31:46;;;;;;;19.45;9.82;;;18.40;73.20;;;;;;5074012;28;20047;-72
2022/09/05 06:34:39;;;;;;;13.73;10.13;;;18.40;73.20;;;;;;5073957;28;20404;-72
2022/09/05 06:37:33;;;;;;;20.88;11.18;;;18.50;73.10;;;;;;5073957;28;20055;-72
2022/09/05 06:40:16;;;;;;;19.58;11.90;;;18.60;73.50;;;;;;5073824;28;20025;-72
2022/09/05 06:43:07;;;;;;;22.40;12.77;;;18.70;73.60;;;;;;5073955;28;20021;-72
2022/09/05 06:46:15;;;;;;;26.05;13.00;;;18.70;73.40;;;;;;5073773;28;20028;-72
2022/09/05 06:49:11;;;;;;;30.55;13.50;;;18.80;73.30;;;;;;5072850;28;20039;-73
2022/09/05 06:51:45;;;;;;;20.50;13.20;;;18.90;73.10;;;;;;5073805;28;20033;-72
2022/09/05 06:54:29;;;;;;;27.95;14.20;;;19.00;73.20;;;;;;5073786;28;20021;-72
2022/09/05 06:57:04;;;;;;;24.15;13.52;;;19.10;73.20;;;;;;5073570;28;20096;-72
2022/09/05 06:59:54;;;;;;;22.65;13.10;;;19.20;73.40;;;;;;5073499;28;20105;-72
2022/09/05 07:02:33;;;;;;;25.15;13.32;;;19.30;73.00;;;;;;5073404;28;20028;-72
2022/09/05 07:05:32;;;;;;;22.60;12.80;;;19.30;72.60;;;;;;5073485;28;20021;-72
2022/09/05 07:08:23;;;;;;;20.58;12.13;;;19.50;72.30;;;;;;5073416;28;20025;-72
2022/09/05 07:11:09;;;;;;;27.73;12.75;;;19.50;72.30;;;;;;5073531;28;20076;-72
2022/09/05 07:14:10;;;;;;;20.10;11.95;;;19.70;72.40;;;;;;5073395;28;20029;-72
2022/09/05 07:16:51;;;;;;;20.60;12.65;;;19.70;72.50;;;;;;5068552;28;20040;-72
2022/09/05 07:19:26;;;;;;;17.30;11.90;;;19.90;72.20;;;;;;5073267;28;20027;-73
2022/09/05 07:22:14;;;;;;;20.38;12.23;;;20.00;71.90;;;;;;5073148;28;20025;-72
2022/09/05 07:24:45;;;;;;;21.63;12.07;;;20.10;71.70;;;;;;5073361;28;20028;-72
2022/09/05 07:27:28;;;;;;;23.38;12.38;;;20.20;71.40;;;;;;5072297;28;20089;-72
2022/09/05 07:29:57;;;;;;;18.25;11.65;;;20.30;71.00;;;;;;5072480;28;20017;-72
2022/09/05 07:32:23;;;;;;;18.73;11.77;;;20.40;70.70;;;;;;5073138;28;20033;-72
2022/09/05 07:34:51;;;;;;;17.55;11.95;;;20.50;70.70;;;;;;5073103;28;20033;-72
2022/09/05 07:37:24;;;;;;;18.40;12.05;;;20.70;70.30;;;;;;5073092;28;20025;-72
2022/09/05 07:39:58;;;;;;;18.92;12.48;;;20.70;69.80;;;;;;5073210;28;20028;-72
2022/09/05 07:42:35;;;;;;;19.65;12.32;;;20.80;69.50;;;;;;5073135;28;20021;-72
2022/09/05 07:45:23;;;;;;;16.67;12.20;;;20.90;69.30;;;;;;5073043;28;20021;-73
2022/09/05 07:48:01;;;;;;;19.50;11.73;;;21.10;69.00;;;;;;5072979;28;20095;-72
2022/09/05 07:50:28;;;;;;;21.42;12.05;;;21.10;68.80;;;;;;5072987;28;20025;-71
2022/09/05 07:52:57;;;;;;;18.83;11.75;;;21.20;68.70;;;;;;5072926;28;20044;-71
2022/09/05 07:55:34;;;;;;;23.35;12.55;;;21.30;69.20;;;;;;5072918;28;20025;-71
2022/09/05 07:58:11;;;;;;;18.38;11.55;;;21.40;67.60;;;;;;5072898;28;20029;-71
2022/09/05 08:00:37;;;;;;;22.15;12.15;;;21.50;67.50;;;;;;5072800;28;20056;-71
2022/09/05 08:03:13;;;;;;;20.00;12.80;;;21.60;67.40;;;;;;5072772;28;20109;-71
2022/09/05 08:05:47;;;;;;;19.95;13.43;;;21.80;67.00;;;;;;5072854;28;20020;-72
2022/09/05 08:08:17;;;;;;;21.42;13.23;;;21.90;66.70;;;;;;5072991;28;20365;-72
2022/09/05 08:10:49;;;;;;;19.80;12.90;;;21.90;66.10;;;;;;5072875;28;20040;-72
2022/09/05 08:13:21;;;;;;;20.37;12.27;;;22.10;65.80;;;;;;5072844;28;20040;-72
2022/09/05 08:15:52;;;;;;;18.42;10.32;;;22.20;65.50;;;;;;5072726;28;20262;-72
2022/09/05 08:18:27;;;;;;;17.30;10.88;;;22.30;64.80;;;;;;5072705;28;20018;-72
2022/09/05 08:20:58;;;;;;;19.38;10.05;;;22.30;64.40;;;;;;5072853;28;20024;-72
2022/09/05 08:23:52;;;;;;;17.67;10.60;;;22.40;63.90;;;;;;5072582;28;20036;-72
2022/09/05 08:26:50;;;;;;;12.38;9.50;;;22.50;63.10;;;;;;5072790;28;20024;-72
2022/09/05 08:29:39;;;;;;;19.75;10.20;;;22.60;62.70;;;;;;5072133;28;20037;-71
2022/09/05 08:32:15;;;;;;;17.48;10.65;;;22.80;61.60;;;;;;5072641;28;20022;-72
2022/09/05 08:34:53;;;;;;;15.93;10.10;;;22.90;61.20;;;;;;5072575;28;20025;-71
2022/09/05 08:37:25;;;;;;;20.33;10.30;;;23.00;60.90;;;;;;5072567;28;20033;-71
2022/09/05 08:39:52;;;;;;;;;;;23.10;60.40;;;;;;5072956;28;20025;-71
2022/09/05 08:42:47;;;;;;;12.50;8.25;;;23.20;59.70;;;;;;5075857;28;20046;-71
2022/09/05 08:45:28;;;;;;;11.65;6.70;;;23.30;58.80;;;;;;5076046;28;20021;-72
2022/09/05 08:48:11;;;;;;;11.75;7.07;;;23.50;59.40;;;;;;5076139;28;20025;-72
2022/09/05 08:51:07;;;;;;;10.38;5.97;;;23.60;58.40;;;;;;5076133;28;20403;-71
2022/09/05 08:53:41;;;;;;;17.67;5.80;;;23.70;57.00;;;;;;5076015;28;20025;-71
2022/09/05 08:56:20;;;;;;;10.23;5.30;;;23.90;54.80;;;;;;5076011;28;20051;-71
2022/09/05 08:59:12;;;;;;;13.32;5.30;;;24.00;54.90;;;;;;5075838;28;20025;-71
2022/09/05 09:02:10;;;;;;;8.75;4.95;;;24.20;54.60;;;;;;5075803;28;20037;-71
2022/09/05 09:04:44;;;;;;;7.75;4.88;;;24.40;54.60;;;;;;5075898;28;20025;-72
2022/09/05 09:07:32;;;;;;;9.38;5.18;;;24.50;53.70;;;;;;5075810;28;20045;-72
2022/09/05 09:10:21;;;;;;;7.85;5.03;;;24.50;53.90;;;;;;5075645;28;20103;-72
2022/09/05 09:13:02;;;;;;;11.95;5.32;;;24.70;54.30;;;;;;5075560;28;20029;-72
2022/09/05 09:16:05;;;;;;;8.02;5.38;;;24.80;54.10;;;;;;5075491;28;20061;-72
2022/09/05 09:18:59;;;;;;;9.38;4.68;;;24.90;53.70;;;;;;5068728;28;20036;-72
2022/09/05 09:21:45;;;;;;;9.02;5.10;;;25.00;52.90;;;;;;5067891;28;20037;-70
2022/09/05 09:24:43;;;;;;;7.10;4.13;;;25.10;51.50;;;;;;5075315;28;20017;-71
2022/09/05 09:27:30;;;;;;;7.82;3.92;;;25.20;51.30;;;;;;5075305;28;20051;-71
2022/09/05 09:30:03;;;;;;;6.88;3.58;;;25.40;50.80;;;;;;5075190;28;20013;-71
2022/09/05 09:32:30;;;;;;;6.30;3.50;;;25.50;51.10;;;;;;5075107;28;20119;-71
2022/09/05 09:35:12;;;;;;;8.35;2.80;;;25.70;50.70;;;;;;5075106;28;20029;-71
2022/09/05 09:38:14;;;;;;;3.42;2.72;;;25.80;47.00;;;;;;5075122;28;20028;-72
2022/09/05 09:40:43;;;;;;;;;;;25.80;46.50;;;;;;5075595;28;20036;-72
2022/09/05 09:43:17;;;;;;;6.18;2.90;;;25.90;47.30;;;;;;5075012;28;19975;-72
2022/09/05 09:45:48;;;;;;;11.73;2.40;;;26.00;46.50;;;;;;5075091;28;20021;-71
2022/09/05 09:48:19;;;;;;;5.25;2.60;;;26.10;46.60;;;;;;5074884;28;20017;-71
2022/09/05 09:50:48;;;;;;;4.85;2.60;;;26.20;45.70;;;;;;5074847;28;20028;-71
2022/09/05 09:53:19;;;;;;;8.80;2.55;;;26.20;45.50;;;;;;5074117;28;20032;-71
2022/09/05 09:55:50;;;;;;;5.47;2.73;;;26.40;46.20;;;;;;5074793;28;20017;-71
2022/09/05 09:58:35;;;;;;;6.67;2.53;;;26.60;46.00;;;;;;5074697;28;20044;-71
2022/09/05 10:01:27;;;;;;;4.78;2.38;;;26.70;44.70;;;;;;5074529;28;20041;-71
2022/09/05 10:04:13;;;;;;;3.17;2.20;;;26.70;41.40;;;;;;5074534;28;20027;-71
2022/09/05 10:07:14;;;;;;;4.63;2.17;;;26.80;43.20;;;;;;5074689;28;20274;-71
2022/09/05 10:09:54;;;;;;;8.23;3.67;;;26.90;42.60;;;;;;5074497;28;20032;-70
2022/09/05 10:12:40;;;;;;;4.55;1.80;;;27.00;41.60;;;;;;5074374;28;20049;-70
2022/09/05 10:15:45;;;;;;;3.33;1.85;;;27.10;41.20;;;;;;5074324;28;20460;-70
2022/09/05 10:18:29;;;;;;;3.83;1.75;;;27.30;41.30;;;;;;5074390;28;20023;-70
2022/09/05 10:21:13;;;;;;;4.13;1.90;;;27.40;40.10;;;;;;5074405;28;20025;-70
2022/09/05 10:24:00;;;;;;;4.07;1.80;;;27.50;40.10;;;;;;5074175;28;20032;-71
2022/09/05 10:26:50;;;;;;;3.00;2.05;;;27.50;37.50;;;;;;5074157;28;20029;-71
2022/09/05 10:29:42;;;;;;;5.35;1.77;;;27.60;38.20;;;;;;5073168;28;20033;-71
2022/09/05 10:32:39;;;;;;;1.80;1.30;;;27.70;36.80;;;;;;5065705;28;20037;-71
2022/09/05 10:35:29;;;;;;;2.75;1.27;;;27.80;33.90;;;;;;5071934;28;20039;-71
2022/09/05 10:38:20;;;;;;;1.60;1.50;;;27.90;33.00;;;;;;5070569;28;20041;-70
2022/09/05 10:40:49;;;;;;;1.33;1.15;;;27.90;35.00;;;;;;5074062;28;20033;-70
2022/09/05 10:43:28;;;;;;;4.65;1.30;;;28.00;34.90;;;;;;5073791;28;20081;-71
2022/09/05 10:46:00;;;;;;;3.10;1.50;;;28.10;34.20;;;;;;5073847;28;20027;-71
2022/09/05 10:48:28;;;;;;;2.20;1.40;;;28.10;35.10;;;;;;5073945;28;20048;-71
2022/09/05 10:51:11;;;;;;;3.38;1.50;;;28.20;35.60;;;;;;5073739;28;20021;-71
2022/09/05 10:53:48;;;;;;;2.30;1.40;;;28.30;36.00;;;;;;5073851;28;20029;-71
2022/09/05 10:56:28;;;;;;;2.50;1.40;;;28.40;35.50;;;;;;5073654;28;20021;-71
2022/09/05 10:59:00;;;;;;;1.80;1.40;;;28.40;37.30;;;;;;5073636;28;20017;-71
2022/09/05 11:01:42;;;;;;;1.60;1.40;;;28.50;35.80;;;;;;5073516;28;20049;-71
2022/09/05 11:04:20;;;;;;;4.33;1.57;;;28.60;34.40;;;;;;5072664;28;20411;-71
2022/09/05 11:06:54;;;;;;;2.78;1.27;;;28.60;34.50;;;;;;5073560;28;20029;-71
2022/09/05 11:09:33;;;;;;;3.45;1.60;;;28.70;34.50;;;;;;5073590;28;20017;-71
2022/09/05 11:12:21;;;;;;;1.65;1.20;;;28.80;34.00;;;;;;5073456;28;20047;-71
2022/09/05 11:14:56;;;;;;;2.17;1.30;;;28.80;33.70;;;;;;5073359;28;20048;-70
2022/09/05 11:17:26;;;;;;;2.00;1.30;;;28.90;33.10;;;;;;5073302;28;20086;-71
2022/09/05 11:20:13;;;;;;;1.85;1.48;;;28.80;33.40;;;;;;5073275;28;20021;-71
2022/09/05 11:22:41;;;;;;;2.15;1.52;;;28.90;33.80;;;;;;5073186;28;20040;-71
2022/09/05 11:25:26;;;;;;;1.95;1.40;;;28.90;33.70;;;;;;5073208;28;20016;-71
2022/09/05 11:27:54;;;;;;;4.43;1.60;;;29.00;33.00;;;;;;5073222;28;20080;-71
2022/09/05 11:30:22;;;;;;;2.78;1.40;;;29.00;33.50;;;;;;5073155;28;20021;-70
2022/09/05 11:33:14;;;;;;;1.67;1.58;;;29.10;34.70;;;;;;5073113;28;20029;-71
2022/09/05 11:35:51;;;;;;;2.67;1.70;;;29.10;34.10;;;;;;5073303;28;20029;-71
2022/09/05 11:38:47;;;;;;;2.47;1.33;;;29.30;34.00;;;;;;5073255;28;20037;-71
2022/09/05 11:41:40;;;;;;;2.17;1.80;;;29.30;32.70;;;;;;5073103;28;20021;-71
2022/09/05 11:44:22;;;;;;;1.55;1.40;;;29.30;32.20;;;;;;5073018;28;20052;-71
2022/09/05 11:47:12;;;;;;;3.85;1.58;;;29.30;32.50;;;;;;5073207;28;20017;-71
2022/09/05 11:49:59;;;;;;;4.68;1.65;;;29.30;32.50;;;;;;5073161;28;20025;-71
2022/09/05 11:52:56;;;;;;;2.67;1.52;;;29.50;32.00;;;;;;5072999;28;20033;-71
2022/09/05 11:55:47;;;;;;;2.40;1.30;;;29.50;31.60;;;;;;5073080;28;20021;-72
2022/09/05 11:58:26;;;;;;;3.53;1.63;;;29.60;31.30;;;;;;5073089;28;20021;-71
2022/09/05 12:00:51;;;;;;;2.67;1.55;;;29.60;30.80;;;;;;5072899;28;20053;-71
2022/09/05 12:03:40;;;;;;;2.47;1.60;;;29.70;32.50;;;;;;5072774;28;20040;-71
2022/09/05 12:06:45;;;;;;;2.30;1.40;;;29.80;30.80;;;;;;5073047;28;20108;-71
2022/09/05 12:09:28;;;;;;;2.38;1.60;;;29.70;30.60;;;;;;5072773;28;20032;-71
2022/09/05 12:12:21;;;;;;;2.88;1.55;;;29.80;31.10;;;;;;5072951;28;20080;-71
2022/09/05 12:14:49;;;;;;;3.35;1.50;;;29.90;30.40;;;;;;5072793;28;20020;-72
2022/09/05 12:17:27;;;;;;;4.28;1.65;;;29.90;31.20;;;;;;5076334;28;20025;-72
2022/09/05 12:20:00;;;;;;;3.40;1.60;;;29.90;31.40;;;;;;5076757;28;20025;-71
2022/09/05 12:22:50;;;;;;;3.53;1.60;;;30.00;31.00;;;;;;5076514;28;20032;-71
2022/09/05 12:25:38;;;;;;;3.28;1.60;;;30.10;32.00;;;;;;5076517;28;20036;-71
2022/09/05 12:28:07;;;;;;;2.05;1.60;;;30.10;30.00;;;;;;5076493;28;20013;-71
2022/09/05 12:30:41;;;;;;;3.30;1.50;;;30.00;30.30;;;;;;5076355;28;20103;-71
2022/09/05 12:33:26;;;;;;;3.25;1.73;;;30.10;30.00;;;;;;5076503;28;20025;-71
2022/09/05 12:36:05;;;;;;;2.40;1.65;;;30.20;31.20;;;;;;5076328;28;20024;-71
2022/09/05 12:38:48;;;;;;;3.92;1.65;;;30.20;30.10;;;;;;5076242;28;20025;-71
2022/09/05 12:41:22;;;;;;;5.30;1.90;;;30.10;30.00;;;;;;5076341;28;20025;-71
2022/09/05 12:43:54;;;;;;;3.05;1.52;;;29.90;30.00;;;;;;5076095;28;20056;-72
2022/09/05 12:46:32;;;;;;;3.38;1.52;;;29.90;30.70;;;;;;5076100;28;20100;-72
2022/09/05 12:49:06;;;;;;;3.35;1.63;;;29.90;31.60;;;;;;5076056;28;20101;-72
2022/09/05 12:51:40;;;;;;;1.40;1.20;;;30.00;30.00;;;;;;5076227;28;20051;-72
2022/09/05 12:54:26;;;;;;;2.85;1.63;;;30.10;30.90;;;;;;5075976;28;20021;-72
2022/09/05 12:57:05;;;;;;;3.30;1.70;;;30.20;29.70;;;;;;5075933;28;20027;-72
2022/09/05 12:59:34;;;;;;;2.67;1.42;;;30.20;29.70;;;;;;5075703;28;20040;-72
2022/09/05 13:02:06;;;;;;;1.65;1.50;;;30.30;29.20;;;;;;5075736;28;20020;-72
2022/09/05 13:04:47;;;;;;;3.10;1.80;;;30.40;28.60;;;;;;5075780;28;20471;-72
2022/09/05 13:07:37;;;;;;;2.22;1.38;;;30.40;30.20;;;;;;5075780;28;20094;-72
2022/09/05 13:10:13;;;;;;;3.25;1.45;;;30.70;29.80;;;;;;5075754;28;20020;-71
2022/09/05 13:13:00;;;;;;;3.38;1.73;;;30.90;29.40;;;;;;5075667;28;20017;-71
2022/09/05 13:15:34;;;;;;;2.45;1.58;;;31.00;29.30;;;;;;5075545;28;20035;-71
2022/09/05 13:18:09;;;;;;;3.05;1.52;;;31.20;28.00;;;;;;5075649;28;20024;-71
2022/09/05 13:20:38;;;;;;;2.15;1.25;;;31.10;28.20;;;;;;5075601;28;20032;-71
2022/09/05 13:23:23;;;;;;;2.17;1.50;;;31.10;28.20;;;;;;5075427;28;20033;-71
2022/09/05 13:26:00;;;;;;;2.90;1.50;;;31.20;28.30;;;;;;5075346;28;20028;-71
2022/09/05 13:28:35;;;;;;;4.00;1.75;;;31.20;28.20;;;;;;5074272;28;20024;-71
2022/09/05 13:31:07;;;;;;;2.45;1.45;;;31.30;28.20;;;;;;5075298;28;20013;-71
2022/09/05 13:33:49;;;;;;;3.90;1.40;;;31.30;28.30;;;;;;5075213;28;20101;-71
2022/09/05 13:36:23;;;;;;;2.35;1.55;;;31.40;27.00;;;;;;5075241;28;20031;-71
2022/09/05 13:39:09;;;;;;;3.22;1.58;;;31.50;27.30;;;;;;5075105;28;20025;-71
2022/09/05 13:41:42;;;;;;;2.83;1.50;;;31.40;27.70;;;;;;5074192;28;20021;-71
2022/09/05 13:44:18;;;;;;;5.22;2.20;;;31.30;27.90;;;;;;5074948;28;20028;-71
2022/09/05 13:46:59;;;;;;;4.13;1.40;;;31.30;27.50;;;;;;5074998;28;20022;-71
2022/09/05 13:49:36;;;;;;;2.70;1.40;;;31.10;27.30;;;;;;5075060;28;20037;-71
2022/09/05 13:52:24;;;;;;;1.70;1.40;;;31.00;27.60;;;;;;5073836;28;20055;-71
2022/09/05 13:54:58;;;;;;;4.47;1.70;;;31.10;28.20;;;;;;5074977;28;20104;-71
2022/09/05 13:57:34;;;;;;;3.22;1.73;;;31.20;28.70;;;;;;5074919;28;20027;-72
2022/09/05 14:00:10;;;;;;;1.95;1.40;;;31.20;28.20;;;;;;5074516;28;20041;-72